Flight Track Log - Related Links

Times and Time Zones

All times are in EDT time to prevent confusion due to time zone crossing. See the AAY876 flight status page for this flight to view local times or setup timezone preferences in your user account.

Time Position Orientation Groundspeed Altitude Reporting Facility
EDT Latitude Longitude Course Direction KTS MPH feet Rate Location/Type
Fri 04:06:31 PM 27.9000 -82.6833 180° South 169 194 700  Level Tampa TRACON
Fri 04:07:13 PM 27.8500 -82.6833 180° South 182 209 2,300 1,471 Climbing Tampa TRACON
Fri 04:08:13 PM 27.8333 -82.7167 241° Southwest 236 272 3,200 1,524 Climbing Tampa TRACON
Fri 04:09:19 PM 27.8500 -82.8167 281° West 288 331 5,500 2,409 Climbing Tampa TRACON
Fri 04:10:25 PM 27.9333 -82.8333 350° North 291 335 8,500 2,550 Climbing Tampa TRACON
Fri 04:11:19 PM 28.0000 -82.8333 360° North 306 352 10,600 1,244 Climbing Tampa TRACON
Fri 04:13:09 PM 28.1708 -82.7819 15° North 338 389 11,900 1,129 Climbing Jacksonville Center
Fri 04:14:09 PM 28.2731 -82.7983 352° North 348 400 13,800 1,950 Climbing Jacksonville Center
Fri 04:15:09 PM 28.3753 -82.8194 350° North 360 414 15,800 1,850 Climbing Jacksonville Center
Fri 04:16:09 PM 28.4839 -82.8383 351° North 374 430 17,500 1,850 Climbing Jacksonville Center
Fri 04:17:09 PM 28.5903 -82.8667 347° North 386 444 19,500 1,700 Climbing Jacksonville Center
Fri 04:18:09 PM 28.6906 -82.9258 333° Northwest 396 456 20,900 1,500 Climbing Jacksonville Center
Fri 04:19:09 PM 28.7906 -82.9850 333° Northwest 396 456 22,500 1,450 Climbing Jacksonville Center
Fri 04:20:09 PM 28.8950 -83.0514 331° Northwest 407 468 23,800 1,250 Climbing Jacksonville Center
Fri 04:21:09 PM 29.0011 -83.1158 332° Northwest 420 483 25,000 1,200 Climbing Jacksonville Center
Fri 04:22:09 PM 29.1158 -83.1611 341° North 420 483 26,200 1,150 Climbing Jacksonville Center
Fri 04:23:09 PM 29.2347 -83.2019 343° North 430 495 27,300 1,150 Climbing Jacksonville Center
Fri 04:24:09 PM 29.3558 -83.2453 343° North 442 509 28,500 900 Climbing Jacksonville Center
Fri 04:25:09 PM 29.4600 -83.2956 337° Northwest 448 516 29,100 750 Climbing Jacksonville Center
Fri 04:26:09 PM 29.5767 -83.3631 333° Northwest 453 521 30,000 950 Climbing Jacksonville Center
Fri 04:27:09 PM 29.6956 -83.4281 335° Northwest 464 534 31,000 1,000 Climbing Jacksonville Center
Fri 04:28:09 PM 29.8142 -83.4911 335° Northwest 469 540 32,000 1,250 Climbing Jacksonville Center
Fri 04:29:09 PM 29.9308 -83.5542 335° Northwest 464 534 33,500 1,000 Climbing Jacksonville Center
Fri 04:30:09 PM 30.0472 -83.6147 336° Northwest 464 534 34,000 350 Climbing Jacksonville Center
Fri 04:31:09 PM 30.1597 -83.6758 335° Northwest 459 528 34,200 550 Climbing Jacksonville Center
Fri 04:32:09 PM 30.2783 -83.7225 341° North 454 522 35,100 900 Climbing Jacksonville Center
Fri 04:33:09 PM 30.4014 -83.7475 350° North 449 517 36,000 450 Climbing Jacksonville Center
Fri 04:34:09 PM 30.5244 -83.7728 350° North 444 511 36,000  Level Jacksonville Center
Fri 04:35:09 PM 30.6558 -83.7811 357° North 444 511 36,000 200 Level Jacksonville Center
Fri 04:36:09 PM 30.7833 -83.7728 North 444 511 36,400 550 Climbing Jacksonville Center
Fri 04:37:09 PM 30.9108 -83.7692 North 444 511 37,100 600 Climbing Jacksonville Center
Fri 04:38:09 PM 31.0319 -83.7750 358° North 444 511 37,600 450 Climbing Jacksonville Center
Fri 04:39:09 PM 31.1547 -83.8078 347° North 437 503 38,000 200 Climbing Jacksonville Center
Fri 04:40:09 PM 31.2778 -83.8381 348° North 448 516 38,000  Level Jacksonville Center
Fri 04:41:41 PM 31.4647 -83.8881 347° North 462 532 38,000 39 Level Atlanta Center
Fri 04:42:41 PM 31.5733 -83.9169 347° North 457 526 38,100  Climbing Atlanta Center
Fri 04:43:41 PM 31.6986 -83.9533 346° North 452 520 38,000 -50 Descending Atlanta Center
Fri 04:44:41 PM 31.8217 -83.9778 350° North 452 520 38,000  Level Atlanta Center
Fri 04:45:41 PM 31.9428 -84.0069 348° North 447 514 38,000  Level Atlanta Center
Fri 04:46:41 PM 32.0617 -84.0364 348° North 442 509 38,000  Level Atlanta Center
Fri 04:47:41 PM 32.1786 -84.0633 349° North 436 502 38,000  Level Atlanta Center
Fri 04:48:41 PM 32.2975 -84.0953 347° North 431 496 38,000 -50 Level Atlanta Center
Fri 04:49:41 PM 32.4144 -84.1250 348° North 431 496 37,900  Descending Atlanta Center
Fri 04:50:41 PM 32.5333 -84.1547 348° North 431 496 38,000 50 Climbing Atlanta Center
Fri 04:51:41 PM 32.6544 -84.1869 347° North 431 496 38,000  Level Atlanta Center
Fri 04:52:41 PM 32.7756 -84.2019 354° North 431 496 38,000  Level Atlanta Center
Fri 04:53:41 PM 32.8986 -84.1872 North 426 490 38,000  Level Atlanta Center
Fri 04:54:41 PM 33.0239 -84.1800 North 432 497 38,000 50 Level Atlanta Center
Fri 04:55:41 PM 33.1658 -84.1803 360° North 445 512 38,100 50 Climbing Atlanta Center
Fri 04:56:41 PM 33.2911 -84.1806 360° North 450 518 38,100 -14 Level Atlanta Center
Fri 05:02:38 PM 34.0524 -84.1505 North 452 520 38,000 -15 Descending FlightAware ADS-B (KDZJ)
Fri 05:03:19 PM 34.1377 -84.1453 North 453 521 38,000  Level FlightAware ADS-B (KDZJ)
Fri 05:03:58 PM 34.2192 -84.1450 350° North 444 511 38,000  Level FlightAware ADS-B (KDZJ)
Fri 05:04:39 PM 34.3022 -84.1737 344° North 453 521 38,000 75 Level FlightAware ADS-B (KDZJ)
Fri 05:05:18 PM 34.3818 -84.2018 344° North 454 522 38,100 76 Climbing FlightAware ADS-B (KDZJ)
Fri 05:05:58 PM 34.4614 -84.2297 344° North 440 506 38,100 -75 Level FlightAware ADS-B (KDZJ)
Fri 05:06:38 PM 34.5401 -84.2574 343° North 438 504 38,000 -76 Descending FlightAware ADS-B (KDZJ)
Fri 05:07:17 PM 34.6165 -84.2846 343° North 435 501 38,000  Level FlightAware ADS-B (KDZJ)
Fri 05:08:19 PM 34.7399 -84.3284 343° North 436 502 38,000  Level FlightAware ADS-B (KDZJ)
Fri 05:08:58 PM 34.8165 -84.3557 343° North 434 499 38,000  Level FlightAware ADS-B (KDZJ)
Fri 05:09:39 PM 34.8973 -84.3845 344° North 440 506 38,000  Level FlightAware ADS-B (KDZJ)
Fri 05:10:19 PM 34.9749 -84.4123 344° North 439 505 38,000  Level FlightAware ADS-B (KDZJ)
Fri 05:10:59 PM 35.0520 -84.4399 344° North 439 505 38,000  Level FlightAware ADS-B (KDZJ)
Fri 05:11:38 PM 35.1286 -84.4673 344° North 439 505 38,000  Level FlightAware ADS-B (KDZJ)
Fri 05:12:19 PM 35.2088 -84.4961 344° North 439 505 38,000  Level FlightAware ADS-B (KDZJ)
Fri 05:13:00 PM 35.2882 -84.5246 344° North 437 503 38,000  Level FlightAware ADS-B (KDZJ)
Fri 05:13:39 PM 35.3645 -84.5521 344° North 436 502 38,000  Level FlightAware ADS-B (KDZJ)
Fri 05:14:29 PM 35.4576 -84.5859 344° North 434 499 38,000  Level FlightAware ADS-B (KMDQ)
Fri 05:16:52 PM 35.6573 -84.6586 344° North 429 494 38,000  Level FlightAware ADS-B (KMDQ)
Fri 05:17:23 PM 35.7905 -84.7069 344° North 429 494 38,000  Level FlightAware ADS-B (KMDQ)
Fri 05:20:35 PM 36.1517 -84.8394 343° North 418 481 38,000  Level FlightAware ADS-B (KMDQ)
Fri 05:21:11 PM 36.2135 -84.8622 343° North 416 479 38,000  Level FlightAware ADS-B (KMDQ)
Fri 05:21:54 PM 36.2887 -84.8899 344° North 416 479 38,000  Level FlightAware ADS-B (KMDQ)
Fri 05:23:16 PM 36.4476 -84.9487 343° North 414 476 38,000  Level FlightAware ADS-B (KMDQ)
Fri 05:24:14 PM 36.5548 -84.9887 343° North 411 473 38,000  Level FlightAware ADS-B (KMDQ)
Fri 05:24:55 PM 36.6303 -85.0166 343° North 409 471 38,000  Level FlightAware ADS-B
Fri 05:25:55 PM 36.7379 -85.0568 343° North 407 468 38,000  Level FlightAware ADS-B
Fri 05:26:57 PM 36.8490 -85.0984 343° North 406 467 38,000  Level FlightAware ADS-B
Fri 05:27:52 PM 36.9460 -85.1350 343° North 408 470 38,000  Level FlightAware ADS-B
Fri 05:28:40 PM 37.0354 -85.1688 343° North 408 470 38,000  Level FlightAware ADS-B (KMDQ)
Fri 05:29:12 PM 37.0743 -85.1833 343° North 406 467 38,000  Level FlightAware ADS-B (KMDQ)
Fri 05:29:42 PM 37.1437 -85.2094 343° North 405 466 38,000  Level FlightAware ADS-B
Fri 05:30:24 PM 37.2202 -85.2385 343° North 403 464 38,000  Level FlightAware ADS-B
Fri 05:31:04 PM 37.2880 -85.2642 343° North 401 461 38,000  Level FlightAware ADS-B
Fri 05:31:42 PM 37.3602 -85.2916 343° North 399 459 38,000  Level FlightAware ADS-B
Fri 05:32:15 PM 37.4021 -85.3076 343° North 397 457 38,000  Level FlightAware ADS-B
Fri 05:32:56 PM 37.4886 -85.3406 343° North 397 457 38,000  Level FlightAware ADS-B
Fri 05:33:26 PM 37.5436 -85.3616 343° North 398 458 38,000  Level FlightAware ADS-B
Fri 05:33:57 PM 37.5980 -85.3824 343° North 397 457 38,000  Level FlightAware ADS-B
Fri 05:34:43 PM 37.6774 -85.4128 343° North 397 457 38,000  Level FlightAware ADS-B
Fri 05:35:13 PM 37.7202 -85.4293 343° North 396 456 38,000  Level FlightAware ADS-B
Fri 05:35:44 PM 37.7793 -85.4522 343° North 396 456 38,000  Level FlightAware ADS-B
Fri 05:36:30 PM 37.8675 -85.4861 343° North 396 456 38,000  Level FlightAware ADS-B
Fri 05:37:00 PM 37.9146 -85.5044 343° North 395 455 38,000  Level FlightAware ADS-B
Fri 05:37:36 PM 37.9823 -85.5306 343° North 395 455 38,000  Level FlightAware ADS-B
Fri 05:38:07 PM 38.0348 -85.5510 343° North 396 456 38,000  Level FlightAware ADS-B
Fri 05:38:41 PM 38.0933 -85.5741 342° North 398 458 38,000  Level FlightAware ADS-B
Fri 05:39:51 PM 38.1915 -85.6292 335° Northwest 402 463 38,000  Level FlightAware ADS-B
Fri 05:40:36 PM 38.2913 -85.6878 335° Northwest 401 461 38,000  Level FlightAware ADS-B
Fri 05:41:08 PM 38.3452 -85.7195 335° Northwest 402 463 38,000  Level FlightAware ADS-B
Fri 05:42:07 PM 38.4466 -85.7793 335° Northwest 404 465 38,000  Level FlightAware ADS-B
Fri 05:42:42 PM 38.4790 -85.7985 335° Northwest 404 465 38,000  Level FlightAware ADS-B (KCVG)
Fri 05:43:15 PM 38.5563 -85.8444 335° Northwest 405 466 38,000 -86 Level FlightAware ADS-B (KCVG)
Fri 05:43:52 PM 38.6246 -85.8848 335° Northwest 407 468 37,900 -690 Descending FlightAware ADS-B (KCVG)
Fri 05:45:08 PM 38.7532 -85.9615 335° Northwest 408 470 36,700 -844 Descending FlightAware ADS-B
Fri 05:46:07 PM 38.8558 -86.0229 335° Northwest 413 475 36,000 -353 Descending FlightAware ADS-B
Fri 05:47:07 PM 38.9593 -86.0850 335° Northwest 412 474 36,000  Level FlightAware ADS-B
Fri 05:48:03 PM 39.0442 -86.1362 335° Northwest 413 475 36,000  Level FlightAware ADS-B
Fri 05:49:07 PM 39.1727 -86.1882 347° North 411 473 36,000  Level FlightAware ADS-B
Fri 05:49:41 PM 39.2356 -86.2072 347° North 408 470 36,000  Level FlightAware ADS-B (KCVG)
Fri 05:50:13 PM 39.2912 -86.2241 347° North 407 468 36,000  Level FlightAware ADS-B (KCVG)
Fri 05:50:44 PM 39.3493 -86.2422 347° North 406 467 36,000  Level FlightAware ADS-B
Fri 05:53:10 PM 39.5779 -86.4264 315° West 421 484 36,000  Level FlightAware ADS-B
Fri 05:57:18 PM 39.9191 -86.8701 315° West 414 476 36,000  Level FlightAware ADS-B
Fri 05:58:02 PM 39.9790 -86.9488 315° West 414 476 36,000  Level FlightAware ADS-B
Fri 05:58:56 PM 40.0413 -87.0307 315° West 415 478 36,000  Level FlightAware ADS-B
Fri 05:59:56 PM 40.1321 -87.1506 315° West 414 476 36,000  Level FlightAware ADS-B
Fri 06:00:31 PM 40.1792 -87.2128 315° West 414 476 36,000  Level FlightAware ADS-B
Fri 06:01:09 PM 40.2307 -87.2814 315° West 412 474 36,000  Level FlightAware ADS-B
Fri 06:01:48 PM 40.2551 -87.3138 314° West 410 472 36,000  Level FlightAware ADS-B
Fri 06:02:20 PM 40.3251 -87.4070 315° West 408 470 36,000  Level FlightAware ADS-B
Fri 06:02:50 PM 40.3645 -87.4598 314° West 405 466 36,000 -1,100 Level FlightAware ADS-B
Fri 06:03:20 PM 40.3948 -87.5003 315° West 405 466 34,900 -3,344 Descending FlightAware ADS-B
Fri 06:03:51 PM 40.4423 -87.5637 314° West 424 488 32,600 -3,273 Descending FlightAware ADS-B
Fri 06:04:26 PM 40.4911 -87.6292 314° West 417 480 31,300 -1,000 Descending FlightAware ADS-B
Fri 06:05:27 PM 40.5757 -87.7431 314° West 417 480 31,000 -191 Descending FlightAware ADS-B
Fri 06:06:00 PM 40.6201 -87.8030 314° West 414 476 31,000  Level FlightAware ADS-B
Fri 06:06:32 PM 40.6631 -87.8613 314° West 412 474 31,000 -483 Level FlightAware ADS-B
Fri 06:07:27 PM 40.7361 -87.9604 314° West 410 472 30,300 -776 Descending FlightAware ADS-B
Fri 06:07:57 PM 40.7677 -88.0033 314° West 400 460 29,900 -968 Descending FlightAware ADS-B
Fri 06:08:29 PM 40.8105 -88.0618 314° West 396 456 29,300 -1,065 Descending FlightAware ADS-B
Fri 06:08:59 PM 40.8512 -88.1173 314° West 395 455 28,800 -984 Descending FlightAware ADS-B
Fri 06:09:30 PM 40.8919 -88.1729 314° West 389 448 28,300 -511 Descending FlightAware ADS-B
Fri 06:10:33 PM 40.9718 -88.2822 314° West 386 444 28,000 -175 Descending FlightAware ADS-B
Fri 06:11:13 PM 41.0193 -88.3474 314° West 386 444 28,000  Level FlightAware ADS-B
Fri 06:11:48 PM 41.0627 -88.4072 314° West 388 447 28,000  Level FlightAware ADS-B
Fri 06:12:45 PM 41.1341 -88.5059 314° West 390 449 28,000 -545 Level FlightAware ADS-B
Fri 06:13:16 PM 41.1742 -88.5614 314° West 398 458 27,200 -2,806 Descending FlightAware ADS-B
Fri 06:13:47 PM 41.1796 -88.5687 314° West 400 460 25,100 -2,625 Descending FlightAware ADS-B
Fri 06:14:36 PM 41.1950 -88.5899 314° West 390 449 23,700 -2,243 Descending FlightAware ADS-B
Fri 06:15:34 PM 41.3065 -88.7453 313° West 386 444 21,100 -2,452 Descending FlightAware ADS-B
Fri 06:16:09 PM 41.3908 -88.8637 313° West 379 436 19,900 -2,067 Descending FlightAware ADS-B
Fri 06:17:04 PM 41.4219 -88.9074 314° West 369 425 18,000 -2,077 Descending FlightAware ADS-B
Fri 06:17:53 PM 41.4982 -89.0146 313° West 358 412 16,300 -2,043 Descending FlightAware ADS-B
Fri 06:19:25 PM 41.6115 -89.1744 313° West 336 387 13,200 -1,628 Descending FlightAware ADS-B
Fri 06:20:02 PM 41.6493 -89.2278 313° West 318 366 12,800 -312 Descending FlightAware ADS-B
Fri 06:20:42 PM 41.6875 -89.2812 319° Northwest 311 358 12,800 -255 Level FlightAware ADS-B
Fri 06:20:49 PM 41.6986 -89.2906 334° Northwest 315 362 12,600 -1,740 Descending FlightAware ADS-B
Fri 06:24:02 PM 41.9411 -89.1978 17° North 292 336 7,000 -1,671 Descending Chicago Center
Fri 06:25:04 PM 42.0122 -89.1478 28° Northeast 289 333 5,500 -1,200 Descending Chicago Center
Fri 06:26:07 PM 42.0872 -89.0961 27° Northeast 272 313 4,500 -912 Descending Chicago Center
Fri 06:27:09 PM 42.1161 -89.0286 60° Northeast 219 252 3,600 -968 Descending Chicago Center
Fri 06:28:11 PM 42.1508 -88.9672 53° Northeast 211 243 2,500 -629 Descending Chicago Center
Fri 06:29:13 PM 42.2014 -89.0008 334° Northwest 208 239 2,300 -242 Descending Chicago Center
Fri 06:30:15 PM 42.2381 -89.0397 322° Northwest 201 231 2,000 -290 Descending Chicago Center

Login

Don't have an account? Register now (free) for customized features, flight alerts, and more!